Pie Town, NM (87827)

5:32 PM MST on January 22, 2017 (GMT -0700)
Treats in Pie Town | | Change Station

Elev 7562 ft 34.31 °N, 108.17 °W | Updated 26 seconds ago

Mostly Cloudy
Mostly Cloudy
33.1 °F
Feels Like 33 °F
N
0.0
Wind Variable Wind from West
Gusts 0.0 mph

Today
High -- | Low -- °F
--% Chance of Precip.
Yesterday
High -- | Low -- °F
Precip. -- in
Pressure 30.13 in
Visibility 1.5 miles
Clouds Mostly Cloudy 2200 ft
Overcast 2700 ft
Windchill 33 °F
Dew Point 26 °F
Humidity 75%
Rainfall 0.00 in
Snow Depth Not available.
7:15 AM 5:33 PM
Waning Crescent, 22% visible
METAR KGNT 230015Z AUTO 21004KT 1 1/2SM -SN BKN022 OVC027 00/M02 A3013 RMK AO2 T00011024
Pressure 30.13 in
Visibility 1.5 miles
Clouds Mostly Cloudy 2200 ft
Overcast 2700 ft
Windchill 33 °F
Dew Point 26 °F
Humidity 75%
Rainfall 0.00 in
Snow Depth Not available.
7:15 AM 5:33 PM
Waning Crescent, 22% visible
METAR KGNT 230015Z AUTO 21004KT 1 1/2SM -SN BKN022 OVC027 00/M02 A3013 RMK AO2 T00011024

Get Your Daily Forecast Email!

Thanks for signing up!

Be on the lookout for a verification email in your inbox.

You'll start receiving the daily forecast at 8 AM.

×

10-Day Weather Forecast

Almanac

Astronomy

Jan. 22, 2017 Rise Set
Actual Time
Civil Twilight
Nautical Twilight
Astronomical Twilight
Moon
Length of Visible Light
Length of Day
Tomorrow will be .
, % of the Moon is Illuminated

Today's Extremes

State Highs State Lows

Community

WunderPhotos

Upload Photos

1,962,540 photos uploaded!

WunderBlog® & News

Nearby

Air Quality

  Air Quality AQ Index Pollutant
Not available.

Snow Depth

Station Depth Elevation

Earthquake Activity

City Distance Mag. Time & Date
Minimum magnitude displayed is 2.5.

Coastal Water Temperatures

Place Temperature

Stations

Nearby Weather Stations

Station Location Temp. Windchill Dew Point Humidity Wind Precip. Elev Updated Type
                   

Watches & Warnings

There are currently no watches in effect.